createdAt,value
2023-02-12T00:01:10.162Z,6.20
2023-02-12T00:03:38.589Z,6.20
2023-02-12T00:06:08.759Z,6.20
2023-02-12T00:08:37.401Z,6.20
2023-02-12T00:11:10.169Z,6.30
2023-02-12T00:13:38.458Z,6.30
2023-02-12T00:16:08.402Z,6.30
2023-02-12T00:18:37.020Z,6.30
2023-02-12T00:21:08.802Z,6.30
2023-02-12T00:23:37.760Z,6.30
2023-02-12T00:26:08.064Z,6.30
2023-02-12T00:28:36.487Z,6.30
2023-02-12T00:31:08.547Z,6.30
2023-02-12T00:33:36.801Z,6.30
2023-02-12T00:36:07.382Z,6.30
2023-02-12T00:38:35.902Z,6.30
2023-02-12T00:41:04.051Z,6.20
2023-02-12T00:43:32.123Z,6.20
2023-02-12T00:46:00.268Z,6.20
2023-02-12T00:48:28.332Z,6.20
2023-02-12T00:50:56.367Z,6.20
2023-02-12T00:53:25.873Z,6.20
2023-02-12T00:55:54.355Z,6.30
2023-02-12T00:58:22.603Z,6.30
2023-02-12T01:00:51.034Z,6.30
2023-02-12T01:03:19.080Z,6.30
2023-02-12T01:05:47.157Z,6.30
2023-02-12T01:08:16.877Z,6.20
2023-02-12T01:10:46.310Z,6.20
2023-02-12T01:13:16.049Z,6.20
2023-02-12T01:15:44.384Z,6.20
2023-02-12T01:18:12.583Z,6.30
2023-02-12T01:20:41.033Z,6.20
2023-02-12T01:23:09.130Z,6.30
2023-02-12T01:25:38.830Z,6.30
2023-02-12T01:28:08.339Z,6.30
2023-02-12T01:30:36.377Z,6.30
2023-02-12T01:33:04.464Z,6.30
2023-02-12T01:35:32.492Z,6.30
2023-02-12T01:38:00.852Z,6.30
2023-02-12T01:40:28.921Z,6.30
2023-02-12T01:42:56.912Z,6.30
2023-02-12T01:45:45.814Z,6.30
2023-02-12T01:48:15.249Z,6.30
2023-02-12T01:50:45.353Z,6.30
2023-02-12T01:53:19.968Z,6.20
2023-02-12T01:55:54.896Z,6.10
2023-02-12T01:58:26.084Z,6.20
2023-02-12T02:00:55.586Z,6.20
2023-02-12T02:03:23.712Z,6.20
2023-02-12T02:05:57.772Z,6.20
2023-02-12T02:08:26.623Z,6.20
2023-02-12T02:10:54.696Z,6.20
2023-02-12T02:13:40.704Z,6.20
2023-02-12T02:16:19.062Z,6.20
2023-02-12T02:18:54.371Z,6.20
2023-02-12T02:21:45.115Z,6.20
2023-02-12T02:24:39.061Z,6.20
2023-02-12T02:27:17.241Z,6.10
2023-02-12T02:30:24.197Z,6.20
2023-02-12T02:32:58.315Z,6.20
2023-02-12T02:35:33.608Z,6.20
2023-02-12T02:38:10.953Z,6.20
2023-02-12T02:40:46.977Z,6.20
2023-02-12T02:43:19.337Z,6.20
2023-02-12T02:45:52.166Z,6.20
2023-02-12T02:48:25.361Z,6.10
2023-02-12T02:50:57.111Z,6.20
2023-02-12T02:53:30.944Z,6.20
2023-02-12T02:56:03.233Z,6.10
2023-02-12T02:58:36.007Z,6.20
2023-02-12T03:01:09.914Z,6.20
2023-02-12T03:03:43.614Z,6.20
2023-02-12T03:06:20.054Z,6.20
2023-02-12T03:08:51.976Z,6.30
2023-02-12T03:11:28.745Z,6.20
2023-02-12T03:14:02.361Z,6.20
2023-02-12T03:16:34.929Z,6.30
2023-02-12T03:19:07.941Z,6.30
2023-02-12T03:21:42.410Z,6.30
2023-02-12T03:24:17.552Z,6.30
2023-02-12T03:26:50.817Z,6.30
2023-02-12T03:29:18.904Z,6.20
2023-02-12T03:32:06.501Z,6.20
2023-02-12T03:34:47.289Z,6.30
2023-02-12T03:37:22.788Z,6.20
2023-02-12T03:39:58.839Z,6.10
2023-02-12T03:42:36.754Z,6.20
2023-02-12T03:45:10.452Z,6.20
2023-02-12T03:47:47.465Z,6.20
2023-02-12T03:50:19.113Z,6.20
2023-02-12T03:52:48.217Z,6.30
2023-02-12T03:55:16.696Z,6.30
2023-02-12T03:57:50.577Z,6.30
2023-02-12T04:00:22.044Z,6.30
2023-02-12T04:02:52.613Z,6.30
2023-02-12T04:05:22.518Z,6.30
2023-02-12T04:07:51.472Z,6.20
2023-02-12T04:10:22.402Z,6.20
2023-02-12T04:12:55.666Z,6.20
2023-02-12T04:15:56.000Z,6.20
2023-02-12T04:18:31.552Z,6.30
2023-02-12T04:21:07.985Z,6.20
2023-02-12T04:23:48.345Z,6.30
2023-02-12T04:26:27.016Z,6.30
2023-02-12T04:29:06.070Z,6.40
2023-02-12T04:31:40.642Z,6.30
2023-02-12T04:34:16.736Z,6.30
2023-02-12T04:36:50.349Z,6.30
2023-02-12T04:39:23.033Z,6.40
2023-02-12T04:41:51.765Z,6.40
2023-02-12T04:44:23.615Z,6.30
2023-02-12T04:46:52.068Z,6.30
2023-02-12T04:49:23.206Z,6.30
2023-02-12T04:51:52.086Z,6.30
2023-02-12T04:54:21.749Z,6.20
2023-02-12T04:56:50.197Z,6.20
2023-02-12T04:59:18.547Z,6.10
2023-02-12T05:01:46.776Z,6.10
2023-02-12T05:04:16.818Z,6.10
2023-02-12T05:06:47.279Z,6.10
2023-02-12T05:09:17.592Z,6.10
2023-02-12T05:11:46.025Z,6.10
2023-02-12T05:14:14.400Z,6.10
2023-02-12T05:16:42.543Z,6.10
2023-02-12T05:19:11.003Z,6.10
2023-02-12T05:21:39.555Z,6.10
2023-02-12T05:24:09.693Z,6.20
2023-02-12T05:26:37.999Z,6.20
2023-02-12T05:29:06.040Z,6.20
2023-02-12T05:31:34.291Z,6.10
2023-02-12T05:34:02.644Z,6.10
2023-02-12T05:36:30.740Z,6.10
2023-02-12T05:39:00.248Z,6.10
2023-02-12T05:41:34.721Z,6.10
2023-02-12T05:44:03.362Z,6.10
2023-02-12T05:46:31.778Z,6.10
2023-02-12T05:48:59.968Z,6.10
2023-02-12T05:51:28.622Z,6.10
2023-02-12T05:54:00.162Z,6.10
2023-02-12T05:56:31.380Z,6.10
2023-02-12T05:59:02.427Z,6.10
2023-02-12T06:01:32.388Z,6.10
2023-02-12T06:04:01.046Z,6.10
2023-02-12T06:06:30.557Z,6.10
2023-02-12T06:08:58.988Z,6.10
2023-02-12T06:11:27.300Z,6.10
2023-02-12T06:13:56.711Z,6.10
2023-02-12T06:16:28.461Z,6.10
2023-02-12T06:18:57.908Z,6.10
2023-02-12T06:21:27.760Z,6.10
2023-02-12T06:23:56.384Z,6.10
2023-02-12T06:26:25.138Z,6.10
2023-02-12T06:28:53.725Z,6.10
2023-02-12T06:31:26.254Z,6.10
2023-02-12T06:33:55.486Z,6.10
2023-02-12T06:36:23.841Z,6.20
2023-02-12T06:38:52.534Z,6.20
2023-02-12T06:41:20.983Z,6.20
2023-02-12T06:43:49.259Z,6.20
2023-02-12T06:46:17.844Z,6.20
2023-02-12T06:48:47.287Z,6.20
2023-02-12T06:51:17.603Z,6.20
2023-02-12T06:53:46.443Z,6.20
2023-02-12T06:56:15.084Z,6.20
2023-02-12T06:58:46.949Z,6.20
2023-02-12T07:01:17.947Z,6.30
2023-02-12T07:03:50.728Z,6.30
2023-02-12T07:06:19.443Z,6.30
2023-02-12T07:08:48.082Z,6.30
2023-02-12T07:11:16.574Z,6.30
2023-02-12T07:13:45.819Z,6.30
2023-02-12T07:16:16.475Z,6.30
2023-02-12T07:18:45.525Z,6.20
2023-02-12T07:21:15.926Z,6.30
2023-02-12T07:23:49.162Z,6.20
2023-02-12T07:26:19.178Z,6.20
2023-02-12T07:28:47.200Z,6.20
2023-02-12T07:31:17.212Z,6.20
2023-02-12T07:33:45.332Z,6.10
2023-02-12T07:36:17.608Z,6.10
2023-02-12T07:38:45.973Z,6.20
2023-02-12T07:41:15.709Z,6.20
2023-02-12T07:43:44.887Z,6.30
2023-02-12T07:46:14.848Z,6.30
2023-02-12T07:48:42.933Z,6.30
2023-02-12T07:51:13.249Z,6.30
2023-02-12T07:53:42.704Z,6.30
2023-02-12T07:56:12.752Z,6.30
2023-02-12T07:58:42.293Z,6.40
2023-02-12T08:01:15.208Z,6.30
2023-02-12T08:03:43.852Z,6.40
2023-02-12T08:06:13.342Z,6.50
2023-02-12T08:08:42.777Z,6.50
2023-02-12T08:11:13.025Z,6.60
2023-02-12T08:13:41.214Z,6.60
2023-02-12T08:16:12.107Z,6.70
2023-02-12T08:18:40.296Z,6.70
2023-02-12T08:21:10.086Z,6.80
2023-02-12T08:23:38.425Z,6.90
2023-02-12T08:26:10.670Z,6.90
2023-02-12T08:28:40.790Z,6.90
2023-02-12T08:31:14.151Z,6.90
2023-02-12T08:33:42.821Z,6.90
2023-02-12T08:36:14.779Z,7.00
2023-02-12T08:38:44.267Z,7.00
2023-02-12T08:41:15.656Z,7.00
2023-02-12T08:43:44.768Z,7.00
2023-02-12T08:46:14.433Z,7.00
2023-02-12T08:48:43.850Z,7.10
2023-02-12T08:51:15.169Z,7.10
2023-02-12T08:53:45.250Z,7.20
2023-02-12T08:56:16.770Z,7.20
2023-02-12T08:58:45.279Z,7.20
2023-02-12T09:01:16.231Z,7.30
2023-02-12T09:03:45.520Z,7.50
2023-02-12T09:06:13.905Z,7.60
2023-02-12T09:08:42.478Z,7.80
2023-02-12T09:11:12.641Z,7.60
2023-02-12T09:13:42.058Z,7.70
2023-02-12T09:16:10.489Z,7.70
2023-02-12T09:18:39.350Z,7.80
2023-02-12T09:21:09.708Z,7.90
2023-02-12T09:23:39.090Z,7.90
2023-02-12T09:26:08.656Z,8.00
2023-02-12T09:28:37.158Z,8.00
2023-02-12T09:31:09.170Z,8.00
2023-02-12T09:33:37.753Z,8.00
2023-02-12T09:36:07.634Z,7.90
2023-02-12T09:38:36.117Z,7.90
2023-02-12T09:41:25.360Z,8.00
2023-02-12T09:43:58.308Z,8.00
2023-02-12T09:46:31.598Z,8.10
2023-02-12T09:49:10.064Z,8.20
2023-02-12T09:51:40.249Z,8.40
2023-02-12T09:54:14.304Z,8.50
2023-02-12T09:56:47.438Z,8.60
2023-02-12T09:59:32.967Z,8.60
2023-02-12T10:02:02.436Z,8.70
2023-02-12T10:04:30.645Z,8.70
2023-02-12T10:07:07.703Z,8.90
2023-02-12T10:09:47.469Z,9.00
2023-02-12T10:12:25.461Z,9.10
2023-02-12T10:15:06.576Z,9.20
2023-02-12T10:17:43.029Z,9.20
2023-02-12T10:20:51.926Z,9.20
2023-02-12T10:23:47.701Z,9.20
2023-02-12T10:26:22.594Z,9.20
2023-02-12T10:28:52.173Z,9.20
2023-02-12T10:31:30.260Z,9.30
2023-02-12T10:33:59.920Z,9.50
2023-02-12T10:36:38.300Z,9.50
2023-02-12T10:39:13.974Z,9.50
2023-02-12T10:41:46.645Z,9.50
2023-02-12T10:44:14.768Z,9.60
2023-02-12T10:46:42.884Z,9.60
2023-02-12T10:49:17.574Z,9.50
2023-02-12T10:52:06.496Z,9.40
2023-02-12T10:54:37.219Z,9.40
2023-02-12T10:57:14.510Z,9.40
2023-02-12T10:59:43.529Z,9.40
2023-02-12T11:02:25.934Z,9.40
2023-02-12T11:04:56.875Z,9.40
2023-02-12T11:07:25.981Z,9.40
2023-02-12T11:09:56.502Z,9.50
2023-02-12T11:12:35.861Z,9.50
2023-02-12T11:15:14.592Z,9.50
2023-02-12T11:17:45.059Z,9.60
2023-02-12T11:20:26.172Z,9.50
2023-02-12T11:22:56.812Z,9.70
2023-02-12T11:25:27.083Z,9.90
2023-02-12T11:28:04.842Z,9.90
2023-02-12T11:30:33.797Z,9.80
2023-02-12T11:33:24.319Z,9.90
2023-02-12T11:35:56.530Z,9.90
2023-02-12T11:38:28.851Z,9.80
2023-02-12T11:41:00.967Z,10.00
2023-02-12T11:43:31.131Z,9.90
2023-02-12T11:46:01.671Z,10.00
2023-02-12T11:48:33.378Z,10.00
2023-02-12T11:51:08.316Z,10.00
2023-02-12T11:53:41.657Z,10.10
2023-02-12T11:56:12.089Z,10.20
2023-02-12T11:58:41.063Z,10.20
2023-02-12T12:01:19.718Z,10.20
2023-02-12T12:03:59.900Z,10.20
2023-02-12T12:06:35.544Z,10.20
2023-02-12T12:09:08.344Z,10.40
2023-02-12T12:11:42.641Z,10.40
2023-02-12T12:14:18.644Z,10.30
2023-02-12T12:17:11.169Z,10.20
2023-02-12T12:19:53.808Z,10.20
2023-02-12T12:22:36.559Z,10.20
2023-02-12T12:25:12.560Z,10.20
2023-02-12T12:28:06.252Z,10.20
2023-02-12T12:30:58.074Z,10.10
2023-02-12T12:33:34.879Z,10.20
2023-02-12T12:36:35.043Z,10.20
2023-02-12T12:39:15.086Z,10.30
2023-02-12T12:42:13.245Z,10.20
2023-02-12T12:44:56.349Z,10.20
2023-02-12T12:47:31.494Z,10.20
2023-02-12T12:50:10.411Z,10.20
2023-02-12T12:53:16.352Z,10.10
2023-02-12T12:56:04.521Z,10.10
2023-02-12T12:58:44.132Z,10.10
2023-02-12T13:01:31.501Z,10.10
2023-02-12T13:04:31.753Z,10.20
2023-02-12T13:07:14.886Z,10.20
2023-02-12T13:09:53.889Z,10.20
2023-02-12T13:12:43.379Z,10.30
2023-02-12T13:15:22.969Z,10.30
2023-02-12T13:17:58.264Z,10.20
2023-02-12T13:20:34.760Z,10.30
2023-02-12T13:23:10.630Z,10.30
2023-02-12T13:25:49.033Z,10.30
2023-02-12T13:28:27.339Z,10.30
2023-02-12T13:30:57.645Z,10.30
2023-02-12T13:33:30.966Z,10.20
2023-02-12T13:36:03.348Z,10.30
2023-02-12T13:38:36.562Z,10.30
2023-02-12T13:41:07.959Z,10.20
2023-02-12T13:43:48.387Z,10.20
2023-02-12T13:46:25.357Z,10.30
2023-02-12T13:49:01.350Z,10.20
2023-02-12T13:51:41.601Z,10.20
2023-02-12T13:54:30.603Z,10.10
2023-02-12T13:57:01.693Z,10.10
2023-02-12T13:59:56.018Z,10.00
2023-02-12T14:02:44.109Z,10.00
2023-02-12T14:05:30.772Z,10.00
2023-02-12T14:08:05.516Z,9.90
2023-02-12T14:10:37.191Z,9.90
2023-02-12T14:13:19.881Z,9.90
2023-02-12T14:15:52.362Z,9.90
2023-02-12T14:18:33.404Z,9.70
2023-02-12T14:21:44.230Z,9.80
2023-02-12T14:24:52.404Z,9.80
2023-02-12T14:27:36.283Z,9.80
2023-02-12T14:30:27.755Z,9.80
2023-02-12T14:33:28.895Z,9.70
2023-02-12T14:36:19.348Z,9.60
2023-02-12T14:39:06.287Z,9.70
2023-02-12T14:41:41.716Z,9.70
2023-02-12T14:44:47.052Z,9.70
2023-02-12T14:47:31.374Z,9.70
2023-02-12T14:50:04.433Z,9.60
2023-02-12T14:52:39.108Z,9.60
2023-02-12T14:55:19.485Z,9.60
2023-02-12T14:57:48.036Z,9.60
2023-02-12T15:00:25.015Z,9.50
2023-02-12T15:02:55.829Z,9.50
2023-02-12T15:05:28.970Z,9.50
2023-02-12T15:08:01.112Z,9.40
2023-02-12T15:10:33.929Z,9.40
2023-02-12T15:13:14.016Z,9.40
2023-02-12T15:15:48.386Z,9.40
2023-02-12T15:18:23.953Z,9.40
2023-02-12T15:21:00.385Z,9.40
2023-02-12T15:23:34.638Z,9.50
2023-02-12T15:26:04.075Z,9.50
2023-02-12T15:28:35.504Z,9.50
2023-02-12T15:31:06.222Z,9.50
2023-02-12T15:33:36.657Z,9.50
2023-02-12T15:36:08.753Z,9.40
2023-02-12T15:38:38.568Z,9.40
2023-02-12T15:41:07.668Z,9.40
2023-02-12T15:43:40.990Z,9.40
2023-02-12T15:46:18.010Z,9.40
2023-02-12T15:48:46.711Z,9.40
2023-02-12T15:51:22.977Z,9.40
2023-02-12T15:53:51.271Z,9.40
2023-02-12T15:56:22.461Z,9.30
2023-02-12T15:58:52.479Z,9.30
2023-02-12T16:01:22.507Z,9.40
2023-02-12T16:03:52.487Z,9.40
2023-02-12T16:06:23.580Z,9.40
2023-02-12T16:08:58.714Z,9.30
2023-02-12T16:11:29.671Z,9.30
2023-02-12T16:14:00.983Z,9.20
2023-02-12T16:16:30.714Z,9.30
2023-02-12T16:19:07.616Z,9.20
2023-02-12T16:21:39.428Z,9.20
2023-02-12T16:24:23.480Z,9.20
2023-02-12T16:26:51.834Z,9.20
2023-02-12T16:29:20.366Z,9.20
2023-02-12T16:31:57.802Z,9.10
2023-02-12T16:34:34.448Z,9.10
2023-02-12T16:37:04.877Z,9.10
2023-02-12T16:40:05.724Z,9.10
2023-02-12T16:42:33.946Z,9.10
2023-02-12T16:45:02.394Z,9.10
2023-02-12T16:47:31.031Z,9.10
2023-02-12T16:50:01.976Z,9.10
2023-02-12T16:52:39.149Z,9.10
2023-02-12T16:55:12.912Z,9.10
2023-02-12T16:57:41.061Z,9.00
2023-02-12T17:00:13.171Z,9.00
2023-02-12T17:02:41.274Z,9.00
2023-02-12T17:05:10.340Z,9.00
2023-02-12T17:07:39.812Z,9.00
2023-02-12T17:10:09.244Z,9.00
2023-02-12T17:12:46.431Z,8.90
2023-02-12T17:15:20.981Z,8.90
2023-02-12T17:17:49.100Z,8.90
2023-02-12T17:20:17.584Z,9.00
2023-02-12T17:22:51.772Z,8.90
2023-02-12T17:25:19.986Z,8.90
2023-02-12T17:27:48.095Z,8.90
2023-02-12T17:30:19.636Z,8.90
2023-02-12T17:32:49.606Z,8.90
2023-02-12T17:35:18.301Z,8.90
2023-02-12T17:37:48.149Z,8.90
2023-02-12T17:40:16.441Z,8.80
2023-02-12T17:42:44.574Z,8.80
2023-02-12T17:45:12.616Z,8.80
2023-02-12T17:47:40.814Z,8.80
2023-02-12T17:50:11.393Z,8.80
2023-02-12T17:52:39.582Z,8.80
2023-02-12T17:55:10.710Z,8.80
2023-02-12T17:57:39.316Z,8.70
2023-02-12T18:00:08.847Z,8.70
2023-02-12T18:02:37.095Z,8.70
2023-02-12T18:05:05.556Z,8.70
2023-02-12T18:07:34.940Z,8.70
2023-02-12T18:10:03.021Z,8.70
2023-02-12T18:12:33.631Z,8.70
2023-02-12T18:15:03.364Z,8.70
2023-02-12T18:17:31.697Z,8.70
2023-02-12T18:19:59.716Z,8.70
2023-02-12T18:22:28.103Z,8.70
2023-02-12T18:24:57.688Z,8.70
2023-02-12T18:27:25.754Z,8.70
2023-02-12T18:29:56.964Z,8.70
2023-02-12T18:32:25.008Z,8.70
2023-02-12T18:34:53.233Z,8.70
2023-02-12T18:37:21.255Z,8.60
2023-02-12T18:39:49.488Z,8.60
2023-02-12T18:42:17.516Z,8.60
2023-02-12T18:44:45.496Z,8.70
2023-02-12T18:47:14.883Z,8.60
2023-02-12T18:49:42.896Z,8.70
2023-02-12T18:52:11.040Z,8.70
2023-02-12T18:54:39.085Z,8.60
2023-02-12T18:57:07.144Z,8.60
2023-02-12T18:59:35.161Z,8.70
2023-02-12T19:02:04.773Z,8.60
2023-02-12T19:04:34.325Z,8.60
2023-02-12T19:07:02.412Z,8.60
2023-02-12T19:09:30.638Z,8.60
2023-02-12T19:12:00.268Z,8.60
2023-02-12T19:14:29.228Z,8.50
2023-02-12T19:16:57.320Z,8.50
2023-02-12T19:19:25.428Z,8.50
2023-02-12T19:21:54.879Z,8.50
2023-02-12T19:24:23.005Z,8.60
2023-02-12T19:26:52.847Z,8.60
2023-02-12T19:29:21.347Z,8.60
2023-02-12T19:31:49.766Z,8.60
2023-02-12T19:34:19.799Z,8.60
2023-02-12T19:36:49.067Z,8.50
2023-02-12T19:39:21.016Z,8.60
2023-02-12T19:41:49.167Z,8.50
2023-02-12T19:44:20.396Z,8.50
2023-02-12T19:46:48.964Z,8.50
2023-02-12T19:49:19.689Z,8.40
2023-02-12T19:51:48.375Z,8.40
2023-02-12T19:54:19.130Z,8.40
2023-02-12T19:56:47.395Z,8.40
2023-02-12T19:59:18.199Z,8.40
2023-02-12T20:01:46.703Z,8.40
2023-02-12T20:04:16.047Z,8.40
2023-02-12T20:06:45.835Z,8.40
2023-02-12T20:09:14.932Z,8.40
2023-02-12T20:11:44.562Z,8.30
2023-02-12T20:14:13.926Z,8.30
2023-02-12T20:16:44.639Z,8.30
2023-02-12T20:19:14.794Z,8.30
2023-02-12T20:21:43.518Z,8.30
2023-02-12T20:24:11.556Z,8.30
2023-02-12T20:26:39.758Z,8.30
2023-02-12T20:29:09.165Z,8.30
2023-02-12T20:31:38.207Z,8.30
2023-02-12T20:34:08.365Z,8.30
2023-02-12T20:36:39.019Z,8.40
2023-02-12T20:39:09.707Z,8.40
2023-02-12T20:41:38.162Z,8.40
2023-02-12T20:44:09.005Z,8.40
2023-02-12T20:46:39.705Z,8.40
2023-02-12T20:49:07.979Z,8.30
2023-02-12T20:51:36.020Z,8.30
2023-02-12T20:54:04.879Z,8.20
2023-02-12T20:56:35.698Z,8.20
2023-02-12T20:59:04.972Z,8.10
2023-02-12T21:01:36.555Z,8.10
2023-02-12T21:04:06.837Z,8.10
2023-02-12T21:06:35.397Z,8.00
2023-02-12T21:09:04.245Z,8.00
2023-02-12T21:11:32.379Z,8.00
2023-02-12T21:14:20.893Z,8.10
2023-02-12T21:16:50.514Z,8.00
2023-02-12T21:19:19.291Z,8.00
2023-02-12T21:21:47.826Z,7.90
2023-02-12T21:24:18.030Z,7.90
2023-02-12T21:26:46.241Z,7.90
2023-02-12T21:29:14.401Z,7.80
2023-02-12T21:31:45.005Z,7.80
2023-02-12T21:34:17.474Z,7.80
2023-02-12T21:36:47.158Z,7.80
2023-02-12T21:39:16.964Z,7.80
2023-02-12T21:41:45.226Z,7.80
2023-02-12T21:44:15.731Z,7.70
2023-02-12T21:46:43.906Z,7.60
2023-02-12T21:49:14.850Z,7.60
2023-02-12T21:51:44.555Z,7.60
2023-02-12T21:54:16.479Z,7.60
2023-02-12T21:56:46.601Z,7.70
2023-02-12T21:59:15.370Z,7.70
2023-02-12T22:01:46.390Z,7.60
2023-02-12T22:04:16.483Z,7.60
2023-02-12T22:06:49.979Z,7.60
2023-02-12T22:09:19.923Z,7.60
2023-02-12T22:11:48.426Z,7.60
2023-02-12T22:14:18.331Z,7.60
2023-02-12T22:16:47.676Z,7.60
2023-02-12T22:19:17.218Z,7.60
2023-02-12T22:21:45.481Z,7.50
2023-02-12T22:24:16.611Z,7.50
2023-02-12T22:26:45.353Z,7.50
2023-02-12T22:29:15.038Z,7.60
2023-02-12T22:31:44.472Z,7.60
2023-02-12T22:34:14.400Z,7.60
2023-02-12T22:36:44.686Z,7.60
2023-02-12T22:39:13.942Z,7.60
2023-02-12T22:41:43.112Z,7.50
2023-02-12T22:44:12.589Z,7.50
2023-02-12T22:46:40.940Z,7.50
2023-02-12T22:49:09.037Z,7.50
2023-02-12T22:51:39.029Z,7.60
2023-02-12T22:54:09.279Z,7.50
2023-02-12T22:56:37.289Z,7.60
2023-02-12T22:59:05.604Z,7.60
2023-02-12T23:01:33.844Z,7.60
2023-02-12T23:04:01.990Z,7.60
2023-02-12T23:06:31.772Z,7.60
2023-02-12T23:09:01.716Z,7.60
2023-02-12T23:11:33.566Z,7.60
2023-02-12T23:14:01.807Z,7.70
2023-02-12T23:16:30.518Z,7.70
2023-02-12T23:18:59.696Z,7.70
2023-02-12T23:21:29.240Z,7.70
2023-02-12T23:23:59.055Z,7.70
2023-02-12T23:26:27.648Z,7.70
2023-02-12T23:28:57.680Z,7.70
2023-02-12T23:31:26.408Z,7.60
2023-02-12T23:33:54.512Z,7.60
2023-02-12T23:36:22.521Z,7.60
2023-02-12T23:38:50.536Z,7.60
2023-02-12T23:41:18.640Z,7.60
2023-02-12T23:43:46.771Z,7.60
2023-02-12T23:46:16.214Z,7.60
2023-02-12T23:48:44.649Z,7.50
2023-02-12T23:51:12.630Z,7.50
2023-02-12T23:53:40.764Z,7.60
2023-02-12T23:56:09.038Z,7.60
2023-02-12T23:58:37.229Z,7.60
